createdAt,value
2022-10-13T00:01:07.255Z,10.60
2022-10-13T00:03:34.654Z,10.50
2022-10-13T00:06:07.281Z,10.50
2022-10-13T00:08:35.684Z,10.40
2022-10-13T00:11:14.169Z,10.30
2022-10-13T00:13:42.372Z,10.30
2022-10-13T00:16:12.115Z,10.30
2022-10-13T00:18:39.368Z,10.20
2022-10-13T00:21:12.415Z,10.20
2022-10-13T00:23:40.963Z,10.20
2022-10-13T00:26:11.502Z,10.20
2022-10-13T00:28:39.659Z,10.20
2022-10-13T00:31:19.975Z,10.20
2022-10-13T00:33:49.356Z,10.20
2022-10-13T00:36:19.495Z,10.20
2022-10-13T00:38:47.521Z,10.20
2022-10-13T00:41:15.190Z,10.10
2022-10-13T00:44:05.471Z,10.10
2022-10-13T00:46:37.366Z,10.10
2022-10-13T00:49:14.603Z,10.10
2022-10-13T00:51:49.244Z,10.10
2022-10-13T00:54:20.651Z,10.00
2022-10-13T00:56:49.742Z,10.00
2022-10-13T00:59:29.402Z,10.00
2022-10-13T01:01:59.521Z,10.00
2022-10-13T01:04:31.433Z,10.10
2022-10-13T01:06:59.145Z,10.00
2022-10-13T01:09:26.371Z,10.10
2022-10-13T01:12:06.392Z,10.10
2022-10-13T01:14:41.483Z,10.10
2022-10-13T01:17:23.746Z,10.10
2022-10-13T01:20:06.499Z,10.10
2022-10-13T01:22:40.714Z,10.10
2022-10-13T01:25:35.730Z,10.20
2022-10-13T01:28:31.688Z,10.20
2022-10-13T01:31:25.685Z,10.20
2022-10-13T01:34:05.328Z,10.30
2022-10-13T01:36:44.253Z,10.30
2022-10-13T01:39:36.198Z,10.30
2022-10-13T01:42:14.551Z,10.40
2022-10-13T01:44:46.139Z,10.40
2022-10-13T01:47:16.879Z,10.40
2022-10-13T01:49:45.641Z,10.50
2022-10-13T01:52:20.220Z,10.60
2022-10-13T01:54:52.393Z,10.50
2022-10-13T01:57:32.976Z,10.50
2022-10-13T02:00:05.309Z,10.60
2022-10-13T02:03:13.479Z,10.60
2022-10-13T02:05:49.687Z,10.70
2022-10-13T02:08:30.267Z,10.70
2022-10-13T02:11:06.478Z,10.70
2022-10-13T02:13:36.817Z,10.70
2022-10-13T02:16:09.002Z,10.80
2022-10-13T02:18:37.109Z,10.70
2022-10-13T02:21:06.368Z,10.70
2022-10-13T02:23:33.685Z,10.60
2022-10-13T02:26:01.585Z,10.60
2022-10-13T02:28:29.566Z,10.60
2022-10-13T02:30:56.885Z,10.60
2022-10-13T02:33:24.145Z,10.60
2022-10-13T02:35:51.397Z,10.60
2022-10-13T02:38:18.760Z,10.60
2022-10-13T02:40:45.915Z,10.60
2022-10-13T02:43:13.188Z,10.60
2022-10-13T02:45:40.394Z,10.50
2022-10-13T02:48:07.729Z,10.60
2022-10-13T02:50:35.321Z,10.50
2022-10-13T02:53:02.633Z,10.60
2022-10-13T02:55:30.063Z,10.60
2022-10-13T02:57:57.397Z,10.60
2022-10-13T03:00:25.038Z,10.60
2022-10-13T03:02:52.456Z,10.70
2022-10-13T03:05:19.855Z,10.70
2022-10-13T03:07:47.182Z,10.70
2022-10-13T03:10:14.393Z,10.70
2022-10-13T03:12:41.636Z,10.70
2022-10-13T03:15:09.525Z,10.70
2022-10-13T03:17:36.777Z,10.70
2022-10-13T03:20:05.053Z,10.70
2022-10-13T03:22:33.244Z,10.60
2022-10-13T03:25:00.693Z,10.60
2022-10-13T03:27:28.289Z,10.60
2022-10-13T03:29:55.511Z,10.60
2022-10-13T03:32:23.195Z,10.60
2022-10-13T03:34:51.776Z,10.60
2022-10-13T03:37:18.996Z,10.60
2022-10-13T03:39:46.326Z,10.60
2022-10-13T03:42:13.947Z,10.70
2022-10-13T03:44:41.513Z,10.70
2022-10-13T03:47:08.783Z,10.70
2022-10-13T03:49:38.933Z,10.70
2022-10-13T03:52:06.494Z,10.70
2022-10-13T03:54:33.750Z,10.70
2022-10-13T03:57:03.300Z,10.70
2022-10-13T03:59:36.381Z,10.70
2022-10-13T04:02:04.290Z,10.70
2022-10-13T04:04:31.634Z,10.70
2022-10-13T04:06:58.946Z,10.70
2022-10-13T04:09:26.375Z,10.70
2022-10-13T04:11:53.874Z,10.70
2022-10-13T04:14:21.268Z,10.60
2022-10-13T04:16:48.584Z,10.60
2022-10-13T04:19:16.497Z,10.60
2022-10-13T04:21:44.274Z,10.60
2022-10-13T04:24:14.972Z,10.60
2022-10-13T04:26:42.331Z,10.60
2022-10-13T04:29:11.442Z,10.60
2022-10-13T04:31:40.348Z,10.60
2022-10-13T04:34:07.955Z,10.60
2022-10-13T04:36:35.548Z,10.60
2022-10-13T04:39:02.886Z,10.70
2022-10-13T04:41:30.166Z,10.70
2022-10-13T04:43:57.429Z,10.80
2022-10-13T04:46:27.018Z,10.90
2022-10-13T04:48:56.804Z,10.90
2022-10-13T04:51:29.821Z,11.00
2022-10-13T04:54:01.699Z,11.00
2022-10-13T04:56:29.217Z,11.10
2022-10-13T04:59:01.774Z,11.10
2022-10-13T05:01:29.055Z,11.20
2022-10-13T05:03:59.836Z,11.20
2022-10-13T05:06:30.784Z,11.20
2022-10-13T05:08:58.442Z,11.20
2022-10-13T05:11:26.875Z,11.20
2022-10-13T05:13:55.022Z,11.20
2022-10-13T05:16:23.452Z,11.10
2022-10-13T05:18:52.553Z,11.20
2022-10-13T05:21:27.959Z,11.20
2022-10-13T05:23:57.360Z,11.20
2022-10-13T05:26:28.806Z,11.20
2022-10-13T05:29:00.543Z,11.20
2022-10-13T05:31:31.879Z,11.20
2022-10-13T05:34:00.394Z,11.20
2022-10-13T05:36:33.041Z,11.20
2022-10-13T05:39:05.813Z,11.30
2022-10-13T05:41:33.230Z,11.40
2022-10-13T05:44:06.577Z,11.20
2022-10-13T05:46:33.958Z,11.20
2022-10-13T05:49:01.257Z,11.20
2022-10-13T05:51:39.879Z,11.20
2022-10-13T05:54:24.521Z,11.20
2022-10-13T05:57:02.542Z,11.20
2022-10-13T05:59:34.369Z,11.20
2022-10-13T06:02:03.135Z,11.20
2022-10-13T06:04:36.173Z,11.20
2022-10-13T06:07:03.888Z,11.30
2022-10-13T06:09:35.750Z,11.20
2022-10-13T06:12:03.037Z,11.20
2022-10-13T06:14:30.645Z,11.30
2022-10-13T06:16:58.154Z,11.30
2022-10-13T06:19:25.706Z,11.30
2022-10-13T06:21:52.960Z,11.40
2022-10-13T06:24:20.349Z,11.40
2022-10-13T06:26:47.969Z,11.40
2022-10-13T06:29:15.963Z,11.40
2022-10-13T06:31:43.521Z,11.40
2022-10-13T06:34:12.975Z,11.40
2022-10-13T06:36:44.678Z,11.50
2022-10-13T06:39:13.041Z,11.60
2022-10-13T06:41:40.625Z,11.70
2022-10-13T06:44:08.324Z,11.80
2022-10-13T06:46:36.021Z,11.80
2022-10-13T06:49:04.082Z,11.80
2022-10-13T06:51:31.922Z,11.70
2022-10-13T06:54:00.886Z,11.80
2022-10-13T06:56:31.129Z,11.80
2022-10-13T06:59:00.669Z,11.80
2022-10-13T07:01:28.207Z,11.80
2022-10-13T07:03:56.151Z,11.80
2022-10-13T07:06:23.941Z,11.80
2022-10-13T07:08:51.875Z,11.90
2022-10-13T07:11:20.863Z,12.00
2022-10-13T07:13:54.283Z,12.00
2022-10-13T07:16:21.863Z,12.10
2022-10-13T07:18:49.398Z,12.10
2022-10-13T07:21:17.048Z,12.10
2022-10-13T07:23:44.822Z,12.10
2022-10-13T07:26:15.112Z,12.10
2022-10-13T07:28:44.312Z,12.20
2022-10-13T07:31:18.424Z,12.10
2022-10-13T07:33:48.048Z,12.10
2022-10-13T07:36:18.574Z,12.10
2022-10-13T07:38:47.179Z,12.10
2022-10-13T07:41:16.007Z,12.00
2022-10-13T07:43:43.992Z,12.00
2022-10-13T07:46:13.942Z,12.10
2022-10-13T07:48:41.962Z,12.10
2022-10-13T07:51:12.891Z,11.90
2022-10-13T07:53:41.956Z,11.90
2022-10-13T07:56:12.022Z,11.90
2022-10-13T07:58:42.659Z,11.90
2022-10-13T08:01:10.392Z,11.90
2022-10-13T08:03:44.147Z,11.90
2022-10-13T08:06:18.990Z,12.00
2022-10-13T08:08:46.455Z,12.00
2022-10-13T08:11:17.846Z,12.20
2022-10-13T08:13:49.641Z,12.10
2022-10-13T08:16:21.090Z,12.10
2022-10-13T08:18:48.991Z,12.10
2022-10-13T08:21:57.041Z,12.10
2022-10-13T08:24:11.272Z,12.20
2022-10-13T08:26:39.192Z,12.20
2022-10-13T08:29:23.463Z,12.20
2022-10-13T08:31:53.561Z,12.30
2022-10-13T08:34:22.914Z,12.30
2022-10-13T08:36:53.552Z,12.20
2022-10-13T08:39:22.956Z,12.20
2022-10-13T08:41:50.978Z,12.30
2022-10-13T08:47:46.943Z,12.50
2022-10-13T08:50:20.528Z,12.60
2022-10-13T08:52:57.161Z,12.80
2022-10-13T08:55:37.314Z,12.80
2022-10-13T08:58:12.790Z,12.90
2022-10-13T09:00:41.202Z,12.90
2022-10-13T09:03:26.838Z,13.00
2022-10-13T09:06:11.688Z,13.00
2022-10-13T09:08:53.918Z,13.20
2022-10-13T09:11:21.771Z,13.20
2022-10-13T09:13:49.242Z,13.20
2022-10-13T09:16:19.509Z,13.10
2022-10-13T09:18:48.049Z,13.20
2022-10-13T09:21:25.097Z,13.20
2022-10-13T09:23:54.257Z,13.20
2022-10-13T09:26:24.909Z,13.30
2022-10-13T09:28:53.358Z,13.40
2022-10-13T09:31:28.859Z,13.40
2022-10-13T09:34:15.106Z,13.50
2022-10-13T09:37:05.775Z,13.60
2022-10-13T09:39:34.250Z,13.60
2022-10-13T09:42:20.700Z,13.60
2022-10-13T09:44:56.954Z,13.60
2022-10-13T09:47:26.783Z,13.70
2022-10-13T09:50:17.385Z,13.70
2022-10-13T09:52:48.561Z,13.70
2022-10-13T09:55:32.675Z,13.90
2022-10-13T09:58:26.474Z,13.80
2022-10-13T10:00:54.696Z,13.70
2022-10-13T10:03:29.536Z,13.90
2022-10-13T10:06:00.678Z,14.00
2022-10-13T10:09:04.499Z,14.20
2022-10-13T10:11:41.910Z,14.20
2022-10-13T10:14:32.122Z,14.30
2022-10-13T10:17:18.193Z,14.20
2022-10-13T10:19:59.304Z,14.10
2022-10-13T10:22:55.072Z,14.00
2022-10-13T10:25:34.354Z,13.70
2022-10-13T10:28:38.890Z,13.60
2022-10-13T10:31:36.813Z,13.80
2022-10-13T10:34:26.273Z,14.00
2022-10-13T10:37:26.477Z,14.30
2022-10-13T10:40:16.911Z,14.60
2022-10-13T10:43:07.194Z,14.90
2022-10-13T10:45:38.874Z,15.00
2022-10-13T10:48:18.025Z,15.00
2022-10-13T10:50:46.000Z,14.90
2022-10-13T10:53:40.146Z,15.10
2022-10-13T10:56:22.335Z,15.20
2022-10-13T10:58:59.467Z,15.40
2022-10-13T11:01:48.469Z,15.50
2022-10-13T11:04:43.122Z,15.60
2022-10-13T11:07:25.345Z,15.80
2022-10-13T11:09:53.037Z,16.30
2022-10-13T11:12:23.338Z,16.30
2022-10-13T11:15:14.026Z,16.60
2022-10-13T11:17:42.150Z,17.10
2022-10-13T11:20:48.302Z,17.50
2022-10-13T11:23:18.376Z,17.70
2022-10-13T11:25:48.925Z,17.70
2022-10-13T11:28:22.515Z,17.60
2022-10-13T11:31:05.195Z,17.40
2022-10-13T11:33:50.357Z,17.00
2022-10-13T11:36:31.553Z,16.80
2022-10-13T11:39:27.496Z,16.50
2022-10-13T11:42:20.888Z,16.30
2022-10-13T11:44:55.830Z,16.40
2022-10-13T11:47:54.121Z,16.30
2022-10-13T11:50:49.034Z,16.30
2022-10-13T11:53:27.799Z,16.40
2022-10-13T11:55:57.897Z,16.60
2022-10-13T11:58:28.138Z,16.60
2022-10-13T12:01:03.295Z,16.50
2022-10-13T12:03:33.195Z,16.60
2022-10-13T12:06:06.342Z,16.60
2022-10-13T12:08:36.089Z,16.40
2022-10-13T12:11:07.772Z,16.20
2022-10-13T12:13:37.433Z,16.10
2022-10-13T12:16:06.735Z,16.00
2022-10-13T12:18:36.077Z,15.80
2022-10-13T12:21:21.405Z,15.80
2022-10-13T12:24:05.452Z,15.90
2022-10-13T12:26:32.846Z,16.00
2022-10-13T12:29:10.640Z,16.10
2022-10-13T12:31:47.408Z,16.20
2022-10-13T12:34:33.386Z,16.10
2022-10-13T12:37:04.928Z,16.20
2022-10-13T12:39:35.198Z,16.10
2022-10-13T12:42:06.631Z,16.10
2022-10-13T12:44:38.298Z,16.20
2022-10-13T12:47:05.562Z,16.30
2022-10-13T12:49:35.272Z,16.30
2022-10-13T12:52:32.673Z,16.30
2022-10-13T12:55:03.963Z,16.30
2022-10-13T12:57:38.793Z,16.30
2022-10-13T13:00:19.538Z,16.50
2022-10-13T13:03:01.913Z,16.80
2022-10-13T13:05:51.840Z,16.70
2022-10-13T13:08:26.131Z,16.60
2022-10-13T13:11:03.845Z,16.20
2022-10-13T13:13:31.531Z,16.20
2022-10-13T13:16:20.394Z,16.10
2022-10-13T13:18:49.817Z,16.00
2022-10-13T13:21:20.224Z,16.00
2022-10-13T13:23:52.849Z,16.00
2022-10-13T13:26:25.199Z,16.10
2022-10-13T13:28:54.962Z,16.20
2022-10-13T13:31:24.606Z,16.20
2022-10-13T13:33:53.111Z,16.00
2022-10-13T13:36:25.952Z,16.10
2022-10-13T13:38:54.317Z,16.10
2022-10-13T13:41:22.176Z,16.30
2022-10-13T13:43:50.151Z,16.50
2022-10-13T13:46:23.509Z,16.30
2022-10-13T13:48:51.750Z,16.10
2022-10-13T13:51:19.623Z,16.00
2022-10-13T13:53:47.083Z,15.90
2022-10-13T13:56:17.711Z,15.80
2022-10-13T13:58:45.361Z,15.80
2022-10-13T14:01:13.890Z,15.80
2022-10-13T14:03:43.463Z,15.80
2022-10-13T14:06:20.087Z,15.90
2022-10-13T14:08:47.546Z,15.90
2022-10-13T14:11:14.868Z,15.90
2022-10-13T14:13:42.173Z,15.80
2022-10-13T14:16:16.337Z,15.80
2022-10-13T14:18:43.795Z,15.80
2022-10-13T14:21:11.931Z,15.70
2022-10-13T14:23:40.117Z,15.60
2022-10-13T14:26:09.630Z,15.60
2022-10-13T14:28:37.111Z,15.60
2022-10-13T14:31:07.864Z,15.60
2022-10-13T14:33:35.931Z,15.70
2022-10-13T14:36:05.563Z,15.80
2022-10-13T14:38:33.701Z,15.90
2022-10-13T14:41:04.831Z,16.00
2022-10-13T14:43:32.336Z,15.90
2022-10-13T14:46:04.755Z,15.90
2022-10-13T14:48:33.316Z,15.80
2022-10-13T14:51:07.166Z,16.00
2022-10-13T14:53:40.312Z,16.00
2022-10-13T14:56:23.139Z,16.10
2022-10-13T14:58:57.792Z,16.20
2022-10-13T15:01:30.013Z,16.10
2022-10-13T15:03:57.303Z,16.20
2022-10-13T15:06:25.681Z,16.20
2022-10-13T15:08:53.708Z,16.30
2022-10-13T15:11:24.204Z,16.40
2022-10-13T15:13:51.529Z,16.50
2022-10-13T15:16:22.016Z,16.70
2022-10-13T15:18:49.875Z,17.20
2022-10-13T15:21:17.605Z,17.80
2022-10-13T15:23:45.390Z,18.50
2022-10-13T15:26:14.523Z,18.70
2022-10-13T15:28:45.699Z,18.60
2022-10-13T15:31:14.001Z,18.20
2022-10-13T15:33:50.662Z,18.00
2022-10-13T15:36:19.276Z,17.70
2022-10-13T15:38:46.647Z,17.50
2022-10-13T15:41:13.976Z,17.10
2022-10-13T15:43:41.281Z,17.00
2022-10-13T15:46:12.001Z,16.80
2022-10-13T15:48:39.742Z,16.60
2022-10-13T15:51:14.711Z,16.30
2022-10-13T15:53:41.991Z,16.20
2022-10-13T15:56:09.316Z,16.00
2022-10-13T15:58:36.918Z,15.90
2022-10-13T16:01:11.068Z,15.80
2022-10-13T16:03:38.946Z,15.70
2022-10-13T16:06:08.884Z,15.50
2022-10-13T16:08:37.870Z,15.50
2022-10-13T16:11:13.579Z,15.40
2022-10-13T16:13:41.620Z,15.30
2022-10-13T16:16:09.200Z,15.30
2022-10-13T16:18:38.711Z,15.20
2022-10-13T16:21:19.058Z,15.30
2022-10-13T16:23:47.741Z,15.20
2022-10-13T16:26:15.913Z,15.10
2022-10-13T16:28:43.644Z,15.00
2022-10-13T16:31:13.680Z,15.00
2022-10-13T16:33:44.612Z,14.90
2022-10-13T16:36:14.909Z,14.90
2022-10-13T16:38:43.807Z,15.00
2022-10-13T16:41:17.299Z,15.00
2022-10-13T16:43:45.609Z,14.90
2022-10-13T16:46:15.685Z,14.90
2022-10-13T16:48:43.992Z,14.80
2022-10-13T16:51:24.224Z,14.80
2022-10-13T16:53:53.612Z,14.80
2022-10-13T16:56:22.612Z,14.80
2022-10-13T16:58:52.741Z,14.80
2022-10-13T17:01:20.442Z,14.80
2022-10-13T17:03:48.946Z,14.80
2022-10-13T17:06:17.248Z,14.80
2022-10-13T17:08:44.680Z,14.70
2022-10-13T17:11:17.749Z,14.70
2022-10-13T17:13:45.177Z,14.60
2022-10-13T17:16:12.928Z,14.60
2022-10-13T17:18:43.158Z,14.50
2022-10-13T17:21:13.639Z,14.50
2022-10-13T17:23:45.915Z,14.50
2022-10-13T17:26:18.038Z,14.40
2022-10-13T17:28:45.546Z,14.40
2022-10-13T17:31:22.161Z,14.30
2022-10-13T17:33:50.619Z,14.20
2022-10-13T17:36:22.669Z,14.20
2022-10-13T17:38:50.342Z,14.20
2022-10-13T17:41:18.330Z,14.10
2022-10-13T17:43:51.112Z,14.10
2022-10-13T17:49:09.930Z,14.00
2022-10-13T17:51:37.220Z,14.00
2022-10-13T17:54:04.853Z,14.00
2022-10-13T17:56:32.654Z,14.00
2022-10-13T17:59:02.039Z,14.00
2022-10-13T18:01:33.938Z,14.00
2022-10-13T18:04:02.562Z,14.00
2022-10-13T18:06:37.858Z,13.90
2022-10-13T18:09:13.161Z,13.90
2022-10-13T18:11:44.382Z,13.90
2022-10-13T18:14:16.078Z,13.90
2022-10-13T18:16:45.431Z,13.90
2022-10-13T18:19:13.603Z,13.90
2022-10-13T18:21:40.981Z,13.90
2022-10-13T18:24:10.915Z,13.90
2022-10-13T18:26:38.435Z,14.00
2022-10-13T18:29:07.915Z,13.90
2022-10-13T18:31:37.198Z,13.90
2022-10-13T18:34:07.718Z,13.90
2022-10-13T18:36:42.853Z,13.90
2022-10-13T18:39:27.727Z,13.90
2022-10-13T18:41:56.834Z,13.90
2022-10-13T18:44:34.372Z,13.90
2022-10-13T18:47:01.726Z,13.90
2022-10-13T18:49:31.735Z,13.90
2022-10-13T18:52:00.677Z,13.90
2022-10-13T18:54:29.073Z,14.00
2022-10-13T18:56:56.711Z,13.90
2022-10-13T18:59:24.207Z,13.90
2022-10-13T19:01:51.617Z,13.90
2022-10-13T19:04:19.051Z,13.90
2022-10-13T19:06:46.663Z,13.80
2022-10-13T19:09:16.002Z,13.80
2022-10-13T19:11:43.277Z,13.80
2022-10-13T19:14:13.195Z,13.80
2022-10-13T19:16:42.496Z,13.80
2022-10-13T19:19:10.433Z,13.80
2022-10-13T19:21:38.847Z,13.80
2022-10-13T19:24:07.059Z,13.80
2022-10-13T19:26:36.315Z,13.80
2022-10-13T19:29:12.423Z,13.70
2022-10-13T19:31:41.687Z,13.70
2022-10-13T19:34:10.896Z,13.70
2022-10-13T19:36:42.812Z,13.70
2022-10-13T19:39:14.898Z,13.70
2022-10-13T19:41:43.149Z,13.70
2022-10-13T19:44:10.690Z,13.60
2022-10-13T19:46:42.838Z,13.60
2022-10-13T19:49:11.854Z,13.60
2022-10-13T19:51:45.661Z,13.60
2022-10-13T19:54:13.845Z,13.60
2022-10-13T19:56:47.375Z,13.60
2022-10-13T19:59:15.155Z,13.50
2022-10-13T20:01:42.378Z,13.50
2022-10-13T20:04:13.649Z,13.50
2022-10-13T20:06:44.275Z,13.50
2022-10-13T20:09:12.157Z,13.50
2022-10-13T20:11:39.635Z,13.50
2022-10-13T20:14:07.049Z,13.40
2022-10-13T20:16:34.978Z,13.40
2022-10-13T20:19:02.299Z,13.30
2022-10-13T20:21:30.140Z,13.30
2022-10-13T20:23:57.712Z,13.30
2022-10-13T20:26:25.723Z,13.20
2022-10-13T20:28:54.490Z,13.20
2022-10-13T20:31:22.768Z,13.10
2022-10-13T20:33:54.982Z,13.10
2022-10-13T20:36:25.423Z,13.10
2022-10-13T20:38:53.081Z,13.00
2022-10-13T20:41:26.561Z,13.00
2022-10-13T20:43:55.484Z,13.00
2022-10-13T20:46:24.010Z,13.00
2022-10-13T20:51:40.801Z,13.00
2022-10-13T20:54:08.263Z,13.00
2022-10-13T20:56:35.981Z,13.00
2022-10-13T20:59:05.312Z,13.00
2022-10-13T21:01:33.443Z,12.90
2022-10-13T21:04:00.724Z,12.90
2022-10-13T21:06:28.098Z,12.80
2022-10-13T21:08:56.745Z,12.80
2022-10-13T21:11:25.259Z,12.70
2022-10-13T21:13:53.033Z,12.70
2022-10-13T21:16:23.368Z,12.70
2022-10-13T21:18:52.024Z,12.60
2022-10-13T21:21:27.748Z,12.50
2022-10-13T21:23:57.294Z,12.50
2022-10-13T21:26:26.093Z,12.50
2022-10-13T21:28:53.960Z,12.50
2022-10-13T21:31:23.482Z,12.50
2022-10-13T21:33:50.769Z,12.50
2022-10-13T21:36:29.773Z,12.50
2022-10-13T21:38:59.803Z,12.50
2022-10-13T21:41:27.727Z,12.50
2022-10-13T21:43:55.065Z,12.50
2022-10-13T21:46:27.924Z,12.50
2022-10-13T21:48:59.782Z,12.60
2022-10-13T21:51:29.959Z,12.60
2022-10-13T21:53:59.884Z,12.60
2022-10-13T21:56:28.495Z,12.60
2022-10-13T21:58:56.348Z,12.60
2022-10-13T22:01:24.125Z,12.70
2022-10-13T22:03:56.531Z,12.70
2022-10-13T22:06:27.222Z,12.70
2022-10-13T22:08:56.062Z,12.70
2022-10-13T22:11:26.034Z,12.80
2022-10-13T22:13:55.401Z,12.70
2022-10-13T22:16:25.517Z,12.80
2022-10-13T22:18:54.895Z,12.80
2022-10-13T22:21:25.764Z,12.70
2022-10-13T22:23:57.682Z,12.70
2022-10-13T22:26:25.767Z,12.70
2022-10-13T22:28:53.207Z,12.70
2022-10-13T22:31:21.018Z,12.70
2022-10-13T22:33:48.932Z,12.70
2022-10-13T22:36:18.544Z,12.70
2022-10-13T22:38:46.961Z,12.70
2022-10-13T22:41:15.147Z,12.70
2022-10-13T22:43:44.607Z,12.70
2022-10-13T22:46:13.551Z,12.70
2022-10-13T22:48:41.646Z,12.60
2022-10-13T22:51:16.621Z,12.60
2022-10-13T22:53:44.883Z,12.60
2022-10-13T22:56:14.826Z,12.60
2022-10-13T22:58:42.179Z,12.60
2022-10-13T23:01:15.107Z,12.70
2022-10-13T23:03:42.900Z,12.60
2022-10-13T23:06:14.462Z,12.60
2022-10-13T23:08:43.718Z,12.60
2022-10-13T23:11:11.736Z,12.60
2022-10-13T23:13:39.855Z,12.60
2022-10-13T23:16:11.259Z,12.60
2022-10-13T23:18:40.048Z,12.60
2022-10-13T23:21:13.316Z,12.60
2022-10-13T23:23:41.387Z,12.60
2022-10-13T23:26:15.524Z,12.60
2022-10-13T23:28:44.381Z,12.60
2022-10-13T23:31:16.468Z,12.60
2022-10-13T23:33:44.700Z,12.60
2022-10-13T23:36:18.116Z,12.60
2022-10-13T23:38:48.718Z,12.60
2022-10-13T23:41:16.685Z,12.60
2022-10-13T23:43:44.719Z,12.60
2022-10-13T23:46:12.092Z,12.60
2022-10-13T23:48:40.397Z,12.60
2022-10-13T23:51:10.792Z,12.60
2022-10-13T23:53:39.754Z,12.70
2022-10-13T23:56:08.524Z,12.70
2022-10-13T23:58:37.303Z,12.70
